Time,TemperatureF,DewpointF,PressureIn,WindDirection,WindDirectionDegrees,WindSpeedMPH,WindSpeedGustMPH,Humidity,HourlyPrecipIn,Conditions,Clouds,dailyrainin,SoftwareType,DateUTC
2013-07-31 00:01:00,78.5,71.4,30.03,NNE,27,0.0,0.0,79,0.00,,,0.00,Wunderground v.1.15,2013-07-31 04:01:00,
2013-07-31 00:03:00,78.5,71.4,30.03,NNE,27,0.0,0.0,79,0.00,,,0.00,Wunderground v.1.15,2013-07-31 04:03:00,
2013-07-31 00:04:00,78.5,71.4,30.03,NNE,27,0.0,0.0,79,0.00,,,0.00,Wunderground v.1.15,2013-07-31 04:04:00,
2013-07-31 00:06:00,78.5,71.4,30.03,NNE,27,0.0,0.0,79,0.00,,,0.00,Wunderground v.1.15,2013-07-31 04:06:00,
2013-07-31 00:12:00,78.3,71.2,30.03,NNE,27,0.0,0.0,79,0.00,,,0.00,Wunderground v.1.15,2013-07-31 04:12:00,
2013-07-31 00:13:00,78.3,71.2,30.03,NNE,27,0.0,0.0,79,0.00,,,0.00,Wunderground v.1.15,2013-07-31 04:13:00,
2013-07-31 00:19:00,78.1,71.1,30.02,NNE,27,0.0,0.0,79,0.00,,,0.00,Wunderground v.1.15,2013-07-31 04:19:00,
2013-07-31 00:25:00,78.1,71.1,30.02,NNE,27,0.0,0.0,79,0.00,,,0.00,Wunderground v.1.15,2013-07-31 04:25:00,
2013-07-31 00:31:00,77.9,70.9,30.02,NNE,27,0.0,0.0,79,0.00,,,0.00,Wunderground v.1.15,2013-07-31 04:31:00,
2013-07-31 00:36:00,77.9,70.9,30.02,NNE,27,0.0,0.0,79,0.00,,,0.00,Wunderground v.1.15,2013-07-31 04:36:00,
2013-07-31 00:41:00,77.7,70.7,30.02,NNE,27,0.0,0.0,79,0.00,,,0.00,Wunderground v.1.15,2013-07-31 04:41:00,
2013-07-31 00:47:00,77.6,70.6,30.02,NNE,27,0.0,0.0,79,0.00,,,0.00,Wunderground v.1.15,2013-07-31 04:47:00,
2013-07-31 00:52:00,77.6,70.9,30.02,NNE,27,0.0,0.0,80,0.00,,,0.00,Wunderground v.1.15,2013-07-31 04:52:00,
2013-07-31 00:58:00,77.4,70.7,30.02,NNE,27,0.0,0.0,80,0.00,,,0.00,Wunderground v.1.15,2013-07-31 04:58:00,
2013-07-31 01:04:00,77.4,70.7,30.01,NNE,27,0.0,0.0,80,0.00,,,0.00,Wunderground v.1.15,2013-07-31 05:04:00,
2013-07-31 01:10:00,77.2,70.5,30.01,NNE,27,0.0,0.0,80,0.00,,,0.00,Wunderground v.1.15,2013-07-31 05:10:00,
2013-07-31 01:16:00,77.2,70.5,30.01,NNE,27,0.0,0.0,80,0.00,,,0.00,Wunderground v.1.15,2013-07-31 05:16:00,
2013-07-31 01:22:00,77.0,70.7,30.01,NNE,27,0.0,0.0,81,0.00,,,0.00,Wunderground v.1.15,2013-07-31 05:22:00,
2013-07-31 01:28:00,77.0,70.7,30.01,NNE,27,0.0,0.0,81,0.00,,,0.00,Wunderground v.1.15,2013-07-31 05:28:00,
2013-07-31 01:34:00,76.8,70.5,30.00,ENE,61,0.0,0.0,81,0.00,,,0.00,Wunderground v.1.15,2013-07-31 05:34:00,
2013-07-31 01:40:00,76.8,70.9,30.00,ENE,61,0.0,0.0,82,0.00,,,0.00,Wunderground v.1.15,2013-07-31 05:40:00,
2013-07-31 01:45:00,76.7,70.8,29.99,ENE,62,0.0,0.0,82,0.00,,,0.00,Wunderground v.1.15,2013-07-31 05:45:00,
2013-07-31 01:51:00,76.5,70.6,29.99,ENE,62,0.0,0.0,82,0.00,,,0.00,Wunderground v.1.15,2013-07-31 05:51:00,
2013-07-31 01:56:00,76.5,70.6,29.99,ENE,61,0.0,0.0,82,0.00,,,0.00,Wunderground v.1.15,2013-07-31 05:56:00,
2013-07-31 02:01:00,76.5,70.6,29.99,ENE,61,0.0,0.0,82,0.00,,,0.00,Wunderground v.1.15,2013-07-31 06:01:00,
2013-07-31 02:06:00,76.3,70.8,29.99,ENE,61,0.0,0.0,83,0.00,,,0.00,Wunderground v.1.15,2013-07-31 06:06:00,
2013-07-31 02:12:00,76.3,70.8,29.99,ENE,61,0.0,0.0,83,0.00,,,0.00,Wunderground v.1.15,2013-07-31 06:12:00,
2013-07-31 02:17:00,76.1,70.6,29.98,ENE,61,0.0,0.0,83,0.00,,,0.00,Wunderground v.1.15,2013-07-31 06:17:00,
2013-07-31 02:22:00,76.1,70.6,29.98,ENE,61,0.0,0.0,83,0.00,,,0.00,Wunderground v.1.15,2013-07-31 06:22:00,
2013-07-31 02:27:00,76.1,70.6,29.98,ENE,61,0.0,0.0,83,0.00,,,0.00,Wunderground v.1.15,2013-07-31 06:27:00,
2013-07-31 02:32:00,76.1,70.6,29.97,ENE,61,0.0,0.0,83,0.00,,,0.00,Wunderground v.1.15,2013-07-31 06:32:00,
2013-07-31 02:37:00,76.1,70.6,29.97,ENE,61,0.0,0.0,83,0.00,,,0.00,Wunderground v.1.15,2013-07-31 06:37:00,
2013-07-31 02:42:00,76.0,70.8,29.97,ENE,62,0.0,0.0,84,0.00,,,0.00,Wunderground v.1.15,2013-07-31 06:42:00,
2013-07-31 02:47:00,76.0,70.8,29.97,ENE,61,0.0,0.0,84,0.00,,,0.00,Wunderground v.1.15,2013-07-31 06:47:00,
2013-07-31 02:52:00,75.8,70.6,29.97,ENE,61,0.0,0.0,84,0.00,,,0.00,Wunderground v.1.15,2013-07-31 06:52:00,
2013-07-31 04:12:00,75.1,69.9,29.96,ENE,61,0.0,0.0,84,0.00,,,0.00,Wunderground v.1.15,2013-07-31 08:12:00,
2013-07-31 04:17:00,75.1,70.3,29.95,ENE,62,0.0,0.0,85,0.00,,,0.00,Wunderground v.1.15,2013-07-31 08:17:00,
2013-07-31 04:22:00,75.1,70.3,29.95,ENE,62,0.0,0.0,85,0.00,,,0.00,Wunderground v.1.15,2013-07-31 08:22:00,
2013-07-31 04:27:00,75.1,70.3,29.95,ENE,62,0.0,0.0,85,0.00,,,0.00,Wunderground v.1.15,2013-07-31 08:27:00,
2013-07-31 04:32:00,75.1,70.3,29.95,ENE,62,0.0,0.0,85,0.00,,,0.00,Wunderground v.1.15,2013-07-31 08:32:00,
2013-07-31 04:37:00,75.1,70.3,29.95,ENE,62,0.0,0.0,85,0.00,,,0.00,Wunderground v.1.15,2013-07-31 08:37:00,
2013-07-31 04:42:00,75.1,70.3,29.95,ENE,62,0.0,0.0,85,0.00,,,0.00,Wunderground v.1.15,2013-07-31 08:42:00,
2013-07-31 04:47:00,75.1,70.3,29.96,ENE,61,0.0,0.0,85,0.00,,,0.00,Wunderground v.1.15,2013-07-31 08:47:00,
2013-07-31 04:52:00,75.1,70.3,29.96,ENE,62,0.0,0.0,85,0.00,,,0.00,Wunderground v.1.15,2013-07-31 08:52:00,
2013-07-31 04:57:00,75.1,70.3,29.96,ENE,61,0.0,0.0,85,0.00,,,0.00,Wunderground v.1.15,2013-07-31 08:57:00,
2013-07-31 05:02:00,75.1,70.3,29.96,ENE,61,0.0,0.0,85,0.00,,,0.00,Wunderground v.1.15,2013-07-31 09:02:00,
2013-07-31 05:07:00,75.1,70.6,29.96,ENE,62,0.0,0.0,86,0.00,,,0.00,Wunderground v.1.15,2013-07-31 09:07:00,
2013-07-31 05:12:00,74.9,70.4,29.96,ENE,61,0.0,0.0,86,0.00,,,0.00,Wunderground v.1.15,2013-07-31 09:12:00,
2013-07-31 05:17:00,74.9,70.4,29.96,ENE,61,0.0,0.0,86,0.00,,,0.00,Wunderground v.1.15,2013-07-31 09:17:00,
2013-07-31 05:22:00,74.9,70.4,29.96,ENE,62,0.0,0.0,86,0.00,,,0.00,Wunderground v.1.15,2013-07-31 09:22:00,
2013-07-31 05:27:00,74.9,70.4,29.96,ENE,62,0.0,0.0,86,0.00,,,0.00,Wunderground v.1.15,2013-07-31 09:27:00,
2013-07-31 05:32:00,74.9,70.4,29.96,ENE,62,0.0,0.0,86,0.00,,,0.00,Wunderground v.1.15,2013-07-31 09:32:00,
2013-07-31 05:37:00,74.9,70.4,29.96,ENE,61,0.0,0.0,86,0.00,,,0.00,Wunderground v.1.15,2013-07-31 09:37:00,
2013-07-31 05:42:00,74.9,70.4,29.96,ENE,62,0.0,0.0,86,0.00,,,0.00,Wunderground v.1.15,2013-07-31 09:42:00,
2013-07-31 05:47:00,74.9,70.4,29.97,ENE,62,0.0,0.0,86,0.00,,,0.00,Wunderground v.1.15,2013-07-31 09:47:00,
2013-07-31 05:53:00,74.9,70.8,29.97,ENE,61,0.0,0.0,87,0.00,,,0.00,Wunderground v.1.15,2013-07-31 09:53:00,
2013-07-31 05:58:00,75.1,71.0,29.97,ENE,61,0.0,1.0,87,0.00,,,0.00,Wunderground v.1.15,2013-07-31 09:58:00,
2013-07-31 06:03:00,75.1,71.0,29.97,ENE,69,0.0,0.0,87,0.00,,,0.00,Wunderground v.1.15,2013-07-31 10:03:00,
2013-07-31 06:08:00,75.1,71.0,29.97,ENE,69,0.0,0.0,87,0.00,,,0.00,Wunderground v.1.15,2013-07-31 10:08:00,
2013-07-31 06:13:00,75.1,71.0,29.97,ENE,71,0.0,1.0,87,0.00,,,0.00,Wunderground v.1.15,2013-07-31 10:13:00,
2013-07-31 06:18:00,75.1,71.0,29.97,ENE,71,0.0,1.0,87,0.00,,,0.00,Wunderground v.1.15,2013-07-31 10:18:00,
2013-07-31 06:23:00,75.1,71.0,29.97,ENE,69,0.0,0.0,87,0.00,,,0.00,Wunderground v.1.15,2013-07-31 10:23:00,
2013-07-31 06:28:00,75.1,71.0,29.97,ENE,71,0.0,0.0,87,0.00,,,0.00,Wunderground v.1.15,2013-07-31 10:28:00,
2013-07-31 06:33:00,75.1,71.0,29.97,ENE,71,0.0,0.0,87,0.00,,,0.00,Wunderground v.1.15,2013-07-31 10:33:00,
2013-07-31 06:38:00,75.1,71.0,29.97,ENE,71,0.0,1.0,87,0.00,,,0.00,Wunderground v.1.15,2013-07-31 10:38:00,
2013-07-31 06:43:00,75.1,71.0,29.97,ENE,71,0.0,1.0,87,0.00,,,0.00,Wunderground v.1.15,2013-07-31 10:43:00,
2013-07-31 06:48:00,75.1,71.0,29.98,ENE,72,0.0,1.0,87,0.00,,,0.00,Wunderground v.1.15,2013-07-31 10:48:00,
2013-07-31 06:53:00,75.1,71.0,29.98,ENE,72,0.0,0.0,87,0.00,,,0.00,Wunderground v.1.15,2013-07-31 10:53:00,
2013-07-31 06:58:00,75.1,71.0,29.98,ENE,72,0.0,0.0,87,0.00,,,0.00,Wunderground v.1.15,2013-07-31 10:58:00,
2013-07-31 07:03:00,75.1,71.0,29.98,ENE,72,0.0,0.0,87,0.00,,,0.00,Wunderground v.1.15,2013-07-31 11:03:00,
2013-07-31 07:08:00,75.1,71.0,29.98,ENE,72,0.0,0.0,87,0.00,,,0.00,Wunderground v.1.15,2013-07-31 11:08:00,
2013-07-31 07:13:00,75.1,71.0,29.98,ENE,72,0.0,0.0,87,0.00,,,0.00,Wunderground v.1.15,2013-07-31 11:13:00,
2013-07-31 07:18:00,75.1,71.0,29.99,ENE,72,0.0,0.0,87,0.00,,,0.00,Wunderground v.1.15,2013-07-31 11:18:00,
2013-07-31 07:23:00,75.1,71.0,29.99,ENE,72,0.0,0.0,87,0.00,,,0.00,Wunderground v.1.15,2013-07-31 11:23:00,
2013-07-31 07:28:00,75.3,71.2,29.99,ENE,72,0.0,0.0,87,0.00,,,0.00,Wunderground v.1.15,2013-07-31 11:28:00,
2013-07-31 07:33:00,75.3,71.2,29.99,East,80,0.0,0.0,87,0.00,,,0.00,Wunderground v.1.15,2013-07-31 11:33:00,
2013-07-31 07:38:00,75.4,71.6,29.99,East,82,0.0,0.0,88,0.00,,,0.00,Wunderground v.1.15,2013-07-31 11:38:00,
2013-07-31 07:43:00,75.6,71.8,29.99,East,82,0.0,0.0,88,0.00,,,0.00,Wunderground v.1.15,2013-07-31 11:43:00,
2013-07-31 07:48:00,76.0,72.2,29.99,East,80,0.0,0.0,88,0.00,,,0.00,Wunderground v.1.15,2013-07-31 11:48:00,
2013-07-31 07:53:00,76.3,72.5,29.99,East,82,0.0,0.0,88,0.00,,,0.00,Wunderground v.1.15,2013-07-31 11:53:00,
2013-07-31 07:58:00,76.7,72.9,29.99,East,82,0.0,0.0,88,0.00,,,0.00,Wunderground v.1.15,2013-07-31 11:58:00,
2013-07-31 08:03:00,77.2,73.4,29.99,East,82,0.0,0.0,88,0.00,,,0.00,Wunderground v.1.15,2013-07-31 12:03:00,
2013-07-31 08:08:00,77.6,73.8,29.99,East,80,0.0,0.0,88,0.00,,,0.00,Wunderground v.1.15,2013-07-31 12:08:00,
2013-07-31 08:13:00,77.9,73.7,29.99,East,86,0.0,0.0,87,0.00,,,0.00,Wunderground v.1.15,2013-07-31 12:13:00,
2013-07-31 08:18:00,78.3,74.1,30.00,East,86,0.0,0.0,87,0.00,,,0.00,Wunderground v.1.15,2013-07-31 12:18:00,
2013-07-31 08:23:00,78.6,74.1,30.00,East,96,0.0,0.0,86,0.00,,,0.00,Wunderground v.1.15,2013-07-31 12:23:00,
2013-07-31 08:28:00,78.8,74.3,30.00,East,93,0.0,0.0,86,0.00,,,0.00,Wunderground v.1.15,2013-07-31 12:28:00,
2013-07-31 08:33:00,79.4,74.8,30.00,East,93,0.0,1.0,86,0.00,,,0.00,Wunderground v.1.15,2013-07-31 12:33:00,
2013-07-31 08:38:00,79.8,75.2,30.00,NE,56,0.0,5.0,86,0.00,,,0.00,Wunderground v.1.15,2013-07-31 12:38:00,
2013-07-31 08:43:00,80.1,75.5,30.00,ENE,68,0.0,0.0,86,0.00,,,0.00,Wunderground v.1.15,2013-07-31 12:43:00,
2013-07-31 08:48:00,80.3,75.4,30.00,ENE,78,0.0,6.0,85,0.00,,,0.00,Wunderground v.1.15,2013-07-31 12:48:00,
2013-07-31 08:53:00,80.9,76.0,30.00,East,79,0.0,5.0,85,0.00,,,0.00,Wunderground v.1.15,2013-07-31 12:53:00,
2013-07-31 08:58:00,81.1,75.8,30.00,East,93,0.0,5.0,84,0.00,,,0.00,Wunderground v.1.15,2013-07-31 12:58:00,
2013-07-31 09:03:00,81.4,76.1,30.01,SSE,150,0.0,0.0,84,0.00,,,0.00,Wunderground v.1.15,2013-07-31 13:03:00,
2013-07-31 09:08:00,81.8,76.5,30.01,SE,131,0.0,2.0,84,0.00,,,0.00,Wunderground v.1.15,2013-07-31 13:08:00,
2013-07-31 09:13:00,81.8,76.5,30.01,ESE,121,0.0,0.0,84,0.00,,,0.00,Wunderground v.1.15,2013-07-31 13:13:00,
2013-07-31 09:18:00,82.2,76.9,30.01,ENE,62,0.0,0.0,84,0.00,,,0.00,Wunderground v.1.15,2013-07-31 13:18:00,
2013-07-31 09:23:00,82.4,76.7,30.01,East,100,0.0,0.0,83,0.00,,,0.00,Wunderground v.1.15,2013-07-31 13:23:00,
2013-07-31 09:29:00,82.8,77.1,30.01,East,83,0.0,3.0,83,0.00,,,0.00,Wunderground v.1.15,2013-07-31 13:29:00,
2013-07-31 09:34:00,83.2,77.5,30.01,SSE,162,0.0,0.0,83,0.00,,,0.00,Wunderground v.1.15,2013-07-31 13:34:00,
2013-07-31 09:39:00,83.6,77.5,30.01,SSE,150,0.0,1.0,82,0.00,,,0.00,Wunderground v.1.15,2013-07-31 13:39:00,
2013-07-31 09:44:00,84.0,77.9,30.01,ESE,102,0.0,6.0,82,0.00,,,0.00,Wunderground v.1.15,2013-07-31 13:44:00,
2013-07-31 09:49:00,84.3,77.8,30.01,East,92,0.0,6.0,81,0.00,,,0.00,Wunderground v.1.15,2013-07-31 13:49:00,
2013-07-31 09:54:00,84.3,77.5,30.01,ENE,65,3.0,8.0,80,0.00,,,0.00,Wunderground v.1.15,2013-07-31 13:54:00,
2013-07-31 09:59:00,84.5,77.6,30.01,ENE,73,0.0,8.0,80,0.00,,,0.00,Wunderground v.1.15,2013-07-31 13:59:00,
2013-07-31 10:04:00,84.9,78.0,30.01,ESE,110,0.0,2.0,80,0.00,,,0.00,Wunderground v.1.15,2013-07-31 14:04:00,
2013-07-31 10:09:00,85.1,77.8,30.01,East,95,0.0,2.0,79,0.00,,,0.00,Wunderground v.1.15,2013-07-31 14:09:00,
2013-07-31 10:14:00,85.5,77.9,30.01,SE,134,0.0,0.0,78,0.00,,,0.00,Wunderground v.1.15,2013-07-31 14:14:00,
2013-07-31 10:19:00,85.9,78.2,30.01,SSE,150,0.0,1.0,78,0.00,,,0.00,Wunderground v.1.15,2013-07-31 14:19:00,
2013-07-31 10:24:00,86.3,78.2,30.01,SSE,151,0.0,1.0,77,0.00,,,0.00,Wunderground v.1.15,2013-07-31 14:24:00,
2013-07-31 10:30:00,86.5,78.0,30.01,SSE,165,0.0,6.0,76,0.00,,,0.00,Wunderground v.1.15,2013-07-31 14:30:00,
2013-07-31 10:35:00,86.7,78.2,30.01,SE,143,0.0,1.0,76,0.00,,,0.00,Wunderground v.1.15,2013-07-31 14:35:00,
2013-07-31 10:40:00,87.2,78.7,30.01,South,174,0.0,3.0,76,0.00,,,0.00,Wunderground v.1.15,2013-07-31 14:40:00,
2013-07-31 10:45:00,87.6,78.7,30.01,East,96,0.0,0.0,75,0.00,,,0.00,Wunderground v.1.15,2013-07-31 14:45:00,
2013-07-31 10:50:00,87.8,78.5,30.01,SSE,148,0.0,0.0,74,0.00,,,0.00,Wunderground v.1.15,2013-07-31 14:50:00,
2013-07-31 10:55:00,88.2,78.9,30.01,ESE,107,0.0,1.0,74,0.00,,,0.00,Wunderground v.1.15,2013-07-31 14:55:00,
2013-07-31 11:00:00,88.4,78.2,30.01,SSE,150,1.0,6.0,72,0.00,,,0.00,Wunderground v.1.15,2013-07-31 15:00:00,
2013-07-31 11:05:00,88.8,78.6,30.01,ESE,102,0.0,0.0,72,0.00,,,0.00,Wunderground v.1.15,2013-07-31 15:05:00,
2013-07-31 11:10:00,89.3,79.1,30.01,East,90,2.0,2.0,72,0.00,,,0.00,Wunderground v.1.15,2013-07-31 15:10:00,
2013-07-31 11:15:00,89.7,79.0,30.01,East,95,0.0,5.0,71,0.00,,,0.00,Wunderground v.1.15,2013-07-31 15:15:00,
2013-07-31 11:20:00,89.9,78.8,30.01,East,95,0.0,5.0,70,0.00,,,0.00,Wunderground v.1.15,2013-07-31 15:20:00,
2013-07-31 11:25:00,90.1,78.1,30.01,East,95,0.0,8.0,68,0.00,,,0.00,Wunderground v.1.15,2013-07-31 15:25:00,
2013-07-31 11:30:00,90.3,77.8,30.01,SSE,157,0.0,8.0,67,0.00,,,0.00,Wunderground v.1.15,2013-07-31 15:30:00,
2013-07-31 11:35:00,90.5,78.0,30.01,North,0,0.0,0.0,67,0.00,,,0.00,Wunderground v.1.15,2013-07-31 15:35:00,
2013-07-31 11:40:00,90.7,77.8,30.01,SE,140,0.0,0.0,66,0.00,,,0.00,Wunderground v.1.15,2013-07-31 15:40:00,
2013-07-31 11:45:00,91.2,78.2,30.01,SE,143,0.0,1.0,66,0.00,,,0.00,Wunderground v.1.15,2013-07-31 15:45:00,
2013-07-31 11:50:00,91.2,77.3,30.01,East,88,0.0,0.0,64,0.00,,,0.00,Wunderground v.1.15,2013-07-31 15:50:00,
2013-07-31 11:55:00,91.2,76.8,30.01,ENE,72,0.0,0.0,63,0.00,,,0.00,Wunderground v.1.15,2013-07-31 15:55:00,
2013-07-31 12:00:00,91.2,76.8,30.01,ENE,66,3.0,3.0,63,0.00,,,0.00,Wunderground v.1.15,2013-07-31 16:00:00,
2013-07-31 12:05:00,91.2,76.8,30.01,ENE,68,1.0,7.0,63,0.00,,,0.00,Wunderground v.1.15,2013-07-31 16:05:00,
2013-07-31 12:10:00,91.2,76.4,30.01,East,96,0.0,0.0,62,0.00,,,0.00,Wunderground v.1.15,2013-07-31 16:10:00,
2013-07-31 12:15:00,91.2,76.4,30.00,ESE,106,0.0,1.0,62,0.00,,,0.00,Wunderground v.1.15,2013-07-31 16:15:00,
2013-07-31 12:20:00,91.4,76.1,30.00,North,11,0.0,0.0,61,0.00,,,0.00,Wunderground v.1.15,2013-07-31 16:20:00,
2013-07-31 12:25:00,91.2,75.9,30.00,ENE,68,0.0,0.0,61,0.00,,,0.00,Wunderground v.1.15,2013-07-31 16:25:00,
2013-07-31 12:30:00,91.2,75.9,29.99,ENE,73,2.0,11.0,61,0.00,,,0.00,Wunderground v.1.15,2013-07-31 16:30:00,
2013-07-31 12:35:00,91.4,76.1,29.99,East,90,0.0,11.0,61,0.00,,,0.00,Wunderground v.1.15,2013-07-31 16:35:00,
2013-07-31 12:40:00,91.8,75.4,29.99,SSE,148,0.0,0.0,59,0.00,,,0.00,Wunderground v.1.15,2013-07-31 16:40:00,
2013-07-31 12:45:00,91.6,75.2,29.99,SSE,148,0.0,0.0,59,0.00,,,0.00,Wunderground v.1.15,2013-07-31 16:45:00,
2013-07-31 12:50:00,91.6,75.2,29.99,North,0,0.0,0.0,59,0.00,,,0.00,Wunderground v.1.15,2013-07-31 16:50:00,
2013-07-31 12:55:00,91.6,75.2,29.99,East,86,0.0,0.0,59,0.00,,,0.00,Wunderground v.1.15,2013-07-31 16:55:00,
2013-07-31 13:00:00,91.6,74.7,29.98,ESE,116,0.0,0.0,58,0.00,,,0.00,Wunderground v.1.15,2013-07-31 17:00:00,
2013-07-31 13:05:00,91.6,74.7,29.98,East,93,0.0,1.0,58,0.00,,,0.00,Wunderground v.1.15,2013-07-31 17:05:00,
2013-07-31 13:10:00,92.1,75.2,29.98,North,0,0.0,0.0,58,0.00,,,0.00,Wunderground v.1.15,2013-07-31 17:10:00,
2013-07-31 13:15:00,92.5,75.0,29.98,ENE,78,0.0,3.0,57,0.00,,,0.00,Wunderground v.1.15,2013-07-31 17:15:00,
2013-07-31 13:20:00,92.9,74.9,29.98,East,100,0.0,0.0,56,0.00,,,0.00,Wunderground v.1.15,2013-07-31 17:20:00,
2013-07-31 13:26:00,93.6,75.0,29.98,SE,137,0.0,0.0,55,0.00,,,0.00,Wunderground v.1.15,2013-07-31 17:26:00,
2013-07-31 13:31:00,93.8,74.6,29.97,SSE,148,0.0,0.0,54,0.00,,,0.00,Wunderground v.1.15,2013-07-31 17:31:00,
2013-07-31 13:36:00,94.3,75.1,29.97,North,353,0.0,0.0,54,0.00,,,0.00,Wunderground v.1.15,2013-07-31 17:36:00,
2013-07-31 13:41:00,94.3,75.1,29.97,NNE,18,0.0,0.0,54,0.00,,,0.00,Wunderground v.1.15,2013-07-31 17:41:00,
2013-07-31 13:46:00,94.5,75.8,29.97,WNW,285,0.0,0.0,55,0.00,,,0.00,Wunderground v.1.15,2013-07-31 17:46:00,
2013-07-31 13:51:00,94.9,76.2,29.97,WNW,289,6.0,6.0,55,0.00,,,0.00,Wunderground v.1.15,2013-07-31 17:51:00,
2013-07-31 13:56:00,95.1,76.4,29.97,SSW,198,1.0,6.0,55,0.00,,,0.00,Wunderground v.1.15,2013-07-31 17:56:00,
2013-07-31 14:01:00,94.9,76.2,29.96,West,275,0.0,0.0,55,0.00,,,0.00,Wunderground v.1.15,2013-07-31 18:01:00,
2013-07-31 14:07:00,94.7,76.0,29.96,WNW,284,1.0,3.0,55,0.00,,,0.00,Wunderground v.1.15,2013-07-31 18:07:00,
2013-07-31 14:17:00,93.4,75.9,29.96,SW,233,0.0,0.0,57,0.00,,,0.00,Wunderground v.1.15,2013-07-31 18:17:00,
2013-07-31 14:22:00,92.5,75.0,29.96,West,281,0.0,2.0,57,0.00,,,0.00,Wunderground v.1.15,2013-07-31 18:22:00,
2013-07-31 14:27:00,91.6,74.7,29.96,West,280,0.0,2.0,58,0.00,,,0.00,Wunderground v.1.15,2013-07-31 18:27:00,
2013-07-31 14:32:00,91.0,74.7,29.95,West,268,5.0,5.0,59,0.00,,,0.00,Wunderground v.1.15,2013-07-31 18:32:00,
2013-07-31 14:37:00,90.1,74.3,29.95,NNW,328,0.0,6.0,60,0.00,,,0.00,Wunderground v.1.15,2013-07-31 18:37:00,
2013-07-31 14:42:00,89.5,73.8,29.95,SSW,203,0.0,1.0,60,0.00,,,0.00,Wunderground v.1.15,2013-07-31 18:42:00,
2013-07-31 14:47:00,89.0,73.8,29.95,SE,145,0.0,1.0,61,0.00,,,0.00,Wunderground v.1.15,2013-07-31 18:47:00,
2013-07-31 14:52:00,88.8,74.6,29.95,South,182,0.0,0.0,63,0.00,,,0.00,Wunderground v.1.15,2013-07-31 18:52:00,
2013-07-31 14:57:00,88.2,73.5,29.95,NW,308,0.0,0.0,62,0.00,,,0.00,Wunderground v.1.15,2013-07-31 18:57:00,
2013-07-31 15:02:00,87.8,73.6,29.94,WNW,285,0.0,0.0,63,0.00,,,0.00,Wunderground v.1.15,2013-07-31 19:02:00,
2013-07-31 15:07:00,87.4,73.7,29.94,NW,308,0.0,1.0,64,0.00,,,0.00,Wunderground v.1.15,2013-07-31 19:07:00,
2013-07-31 15:12:00,87.2,74.0,29.94,NW,306,0.0,0.0,65,0.00,,,0.00,Wunderground v.1.15,2013-07-31 19:12:00,
2013-07-31 15:17:00,87.0,73.8,29.93,WNW,287,0.0,0.0,65,0.00,,,0.00,Wunderground v.1.15,2013-07-31 19:17:00,
2013-07-31 15:22:00,87.2,74.5,29.93,WNW,287,0.0,0.0,66,0.00,,,0.00,Wunderground v.1.15,2013-07-31 19:22:00,
2013-07-31 15:27:00,87.4,74.6,29.93,SW,219,0.0,0.0,66,0.00,,,0.00,Wunderground v.1.15,2013-07-31 19:27:00,
2013-07-31 15:32:00,87.6,74.4,29.93,SSW,205,0.0,0.0,65,0.00,,,0.00,Wunderground v.1.15,2013-07-31 19:32:00,
2013-07-31 15:37:00,88.0,75.2,29.93,SW,217,0.0,0.0,66,0.00,,,0.00,Wunderground v.1.15,2013-07-31 19:37:00,
2013-07-31 15:43:00,88.4,75.1,29.93,SW,219,0.0,1.0,65,0.00,,,0.00,Wunderground v.1.15,2013-07-31 19:43:00,
2013-07-31 15:48:00,88.8,75.5,29.92,NW,323,0.0,1.0,65,0.00,,,0.00,Wunderground v.1.15,2013-07-31 19:48:00,
2013-07-31 15:53:00,89.5,75.7,29.92,West,261,0.0,7.0,64,0.00,,,0.00,Wunderground v.1.15,2013-07-31 19:53:00,
2013-07-31 15:58:00,89.9,76.1,29.92,WSW,243,0.0,7.0,64,0.00,,,0.00,Wunderground v.1.15,2013-07-31 19:58:00,
2013-07-31 16:03:00,90.1,76.3,29.92,North,359,0.0,3.0,64,0.00,,,0.00,Wunderground v.1.15,2013-07-31 20:03:00,
2013-07-31 16:08:00,90.5,76.7,29.92,SW,232,0.0,3.0,64,0.00,,,0.00,Wunderground v.1.15,2013-07-31 20:08:00,
2013-07-31 16:13:00,90.7,76.8,29.92,West,265,0.0,0.0,64,0.00,,,0.00,Wunderground v.1.15,2013-07-31 20:13:00,
2013-07-31 16:18:00,90.7,76.4,29.91,North,0,0.0,6.0,63,0.00,,,0.00,Wunderground v.1.15,2013-07-31 20:18:00,
2013-07-31 16:23:00,90.7,76.4,29.91,NNW,333,0.0,7.0,63,0.00,,,0.00,Wunderground v.1.15,2013-07-31 20:23:00,
2013-07-31 16:28:00,91.0,76.7,29.91,SW,230,0.0,7.0,63,0.00,,,0.00,Wunderground v.1.15,2013-07-31 20:28:00,
2013-07-31 16:33:00,91.0,76.7,29.91,NNW,337,0.0,1.0,63,0.00,,,0.00,Wunderground v.1.15,2013-07-31 20:33:00,
2013-07-31 16:38:00,91.2,76.4,29.91,WSW,237,0.0,1.0,62,0.00,,,0.00,Wunderground v.1.15,2013-07-31 20:38:00,
2013-07-31 16:43:00,91.4,77.0,29.91,WNW,287,2.0,2.0,63,0.00,,,0.00,Wunderground v.1.15,2013-07-31 20:43:00,
2013-07-31 16:48:00,91.4,76.5,29.91,WSW,240,0.0,6.0,62,0.00,,,0.00,Wunderground v.1.15,2013-07-31 20:48:00,
2013-07-31 16:53:00,91.6,76.7,29.91,WSW,253,0.0,1.0,62,0.00,,,0.00,Wunderground v.1.15,2013-07-31 20:53:00,
2013-07-31 16:58:00,91.8,76.4,29.91,West,264,0.0,8.0,61,0.00,,,0.00,Wunderground v.1.15,2013-07-31 20:58:00,
2013-07-31 17:03:00,91.8,76.4,29.91,WSW,241,0.0,1.0,61,0.00,,,0.00,Wunderground v.1.15,2013-07-31 21:03:00,
2013-07-31 17:08:00,91.8,76.4,29.91,WNW,295,0.0,6.0,61,0.00,,,0.00,Wunderground v.1.15,2013-07-31 21:08:00,
2013-07-31 17:13:00,91.8,75.9,29.91,WNW,288,0.0,1.0,60,0.00,,,0.00,Wunderground v.1.15,2013-07-31 21:13:00,
2013-07-31 17:18:00,91.8,75.9,29.90,WNW,294,0.0,7.0,60,0.00,,,0.00,Wunderground v.1.15,2013-07-31 21:18:00,
2013-07-31 17:23:00,91.8,75.4,29.90,SSW,209,6.0,8.0,59,0.00,,,0.00,Wunderground v.1.15,2013-07-31 21:23:00,
2013-07-31 17:28:00,91.6,75.2,29.90,WNW,285,0.0,8.0,59,0.00,,,0.00,Wunderground v.1.15,2013-07-31 21:28:00,
2013-07-31 17:33:00,91.4,75.1,29.90,WNW,299,0.0,5.0,59,0.00,,,0.00,Wunderground v.1.15,2013-07-31 21:33:00,
2013-07-31 17:38:00,91.4,75.1,29.90,SSW,209,0.0,5.0,59,0.00,,,0.00,Wunderground v.1.15,2013-07-31 21:38:00,
2013-07-31 17:43:00,91.4,75.1,29.90,WNW,289,0.0,0.0,59,0.00,,,0.00,Wunderground v.1.15,2013-07-31 21:43:00,
2013-07-31 17:48:00,91.4,75.1,29.90,WNW,294,0.0,6.0,59,0.00,,,0.00,Wunderground v.1.15,2013-07-31 21:48:00,
2013-07-31 17:53:00,91.2,74.9,29.90,West,278,0.0,1.0,59,0.00,,,0.00,Wunderground v.1.15,2013-07-31 21:53:00,
2013-07-31 17:59:00,91.2,74.9,29.90,NNW,328,0.0,4.0,59,0.00,,,0.00,Wunderground v.1.15,2013-07-31 21:59:00,
2013-07-31 18:04:00,91.0,74.7,29.90,NW,312,0.0,0.0,59,0.00,,,0.00,Wunderground v.1.15,2013-07-31 22:04:00,
2013-07-31 18:09:00,90.5,74.2,29.90,NW,304,0.0,7.0,59,0.00,,,0.00,Wunderground v.1.15,2013-07-31 22:09:00,
2013-07-31 18:14:00,90.3,74.5,29.90,WNW,299,3.0,3.0,60,0.00,,,0.00,Wunderground v.1.15,2013-07-31 22:14:00,
2013-07-31 18:19:00,89.9,74.2,29.90,WSW,250,0.0,4.0,60,0.00,,,0.00,Wunderground v.1.15,2013-07-31 22:19:00,
2013-07-31 18:24:00,89.5,73.8,29.90,WNW,294,0.0,5.0,60,0.00,,,0.00,Wunderground v.1.15,2013-07-31 22:24:00,
2013-07-31 18:29:00,89.3,74.1,29.90,NW,313,0.0,5.0,61,0.00,,,0.00,Wunderground v.1.15,2013-07-31 22:29:00,
2013-07-31 18:34:00,89.0,73.8,29.90,West,261,0.0,0.0,61,0.00,,,0.00,Wunderground v.1.15,2013-07-31 22:34:00,
2013-07-31 18:35:00,89.0,73.8,29.90,WNW,288,6.0,7.0,61,0.00,,,0.00,Wunderground v.1.15,2013-07-31 22:35:00,
2013-07-31 18:40:00,88.6,73.4,29.90,West,274,0.0,7.0,61,0.00,,,0.00,Wunderground v.1.15,2013-07-31 22:40:00,
2013-07-31 18:45:00,88.4,73.7,29.90,NW,309,0.0,4.0,62,0.00,,,0.00,Wunderground v.1.15,2013-07-31 22:45:00,
2013-07-31 18:50:00,88.2,73.5,29.90,NW,309,0.0,4.0,62,0.00,,,0.00,Wunderground v.1.15,2013-07-31 22:50:00,
2013-07-31 18:55:00,88.2,74.0,29.90,NW,313,0.0,0.0,63,0.00,,,0.00,Wunderground v.1.15,2013-07-31 22:55:00,
2013-07-31 19:00:00,88.0,73.8,29.90,NW,305,0.0,7.0,63,0.00,,,0.00,Wunderground v.1.15,2013-07-31 23:00:00,
2013-07-31 19:05:00,88.0,73.8,29.90,WSW,251,0.0,1.0,63,0.00,,,0.00,Wunderground v.1.15,2013-07-31 23:05:00,
2013-07-31 19:10:00,87.8,74.1,29.90,WSW,251,0.0,0.0,64,0.00,,,0.00,Wunderground v.1.15,2013-07-31 23:10:00,
2013-07-31 19:15:00,87.6,73.9,29.90,WNW,302,0.0,5.0,64,0.00,,,0.00,Wunderground v.1.15,2013-07-31 23:15:00,
2013-07-31 19:20:00,87.4,73.7,29.90,WNW,285,0.0,0.0,64,0.00,,,0.00,Wunderground v.1.15,2013-07-31 23:20:00,
2013-07-31 19:25:00,87.2,73.5,29.90,NW,304,0.0,0.0,64,0.00,,,0.00,Wunderground v.1.15,2013-07-31 23:25:00,
2013-07-31 19:30:00,87.0,73.3,29.90,North,359,0.0,0.0,64,0.00,,,0.00,Wunderground v.1.15,2013-07-31 23:30:00,
2013-07-31 19:35:00,87.0,73.8,29.90,NW,304,0.0,0.0,65,0.00,,,0.00,Wunderground v.1.15,2013-07-31 23:35:00,
2013-07-31 19:40:00,86.7,73.5,29.90,NW,308,0.0,0.0,65,0.00,,,0.00,Wunderground v.1.15,2013-07-31 23:40:00,
2013-07-31 19:45:00,86.5,73.3,29.91,NW,322,0.0,0.0,65,0.00,,,0.00,Wunderground v.1.15,2013-07-31 23:45:00,
2013-07-31 19:50:00,86.5,73.3,29.91,NW,322,0.0,0.0,65,0.00,,,0.00,Wunderground v.1.15,2013-07-31 23:50:00,
2013-07-31 19:55:00,86.3,73.6,29.91,NW,322,0.0,0.0,66,0.00,,,0.00,Wunderground v.1.15,2013-07-31 23:55:00,
2013-07-31 20:00:00,86.1,73.4,29.93,NW,322,0.0,0.0,66,0.00,,,0.00,Wunderground v.1.15,2013-08-01 00:00:00,
2013-07-31 20:05:00,85.7,71.2,29.93,East,86,1.0,7.0,62,0.00,,,0.00,Wunderground v.1.15,2013-08-01 00:05:00,
2013-07-31 20:10:00,84.9,69.9,29.93,South,174,0.0,2.0,61,0.00,,,0.00,Wunderground v.1.15,2013-08-01 00:10:00,
2013-07-31 20:15:00,84.3,69.4,29.93,ENE,71,6.0,7.0,61,0.00,,,0.00,Wunderground v.1.15,2013-08-01 00:15:00,
2013-07-31 20:20:00,83.6,68.7,29.93,East,80,4.0,4.0,61,0.00,,,0.00,Wunderground v.1.15,2013-08-01 00:20:00,
2013-07-31 20:25:00,83.0,68.6,29.93,East,96,0.0,11.0,62,0.00,,,0.00,Wunderground v.1.15,2013-08-01 00:25:00,
2013-07-31 20:30:00,82.6,68.7,29.93,ESE,102,0.0,2.0,63,0.00,,,0.00,Wunderground v.1.15,2013-08-01 00:30:00,
2013-07-31 20:35:00,82.0,69.5,29.93,East,92,0.0,10.0,66,0.00,,,0.00,Wunderground v.1.15,2013-08-01 00:35:00,
2013-07-31 20:40:00,81.4,69.4,29.93,ESE,119,0.0,1.0,67,0.64,,,0.03,Wunderground v.1.15,2013-08-01 00:40:00,
2013-07-31 20:45:00,80.7,69.6,29.93,SE,143,0.0,2.0,69,0.25,,,0.05,Wunderground v.1.15,2013-08-01 00:45:00,
2013-07-31 20:50:00,79.9,69.2,29.93,SSE,147,0.0,0.0,70,0.15,,,0.06,Wunderground v.1.15,2013-08-01 00:50:00,
2013-07-31 20:55:00,79.4,69.2,29.93,SSE,147,0.0,0.0,71,0.08,,,0.07,Wunderground v.1.15,2013-08-01 00:55:00,
2013-07-31 21:00:00,78.8,69.0,29.92,SSE,147,0.0,0.0,72,0.08,,,0.07,Wunderground v.1.15,2013-08-01 01:00:00,
2013-07-31 21:05:00,78.3,68.5,29.92,SSE,147,0.0,0.0,72,0.05,,,0.07,Wunderground v.1.15,2013-08-01 01:05:00,
2013-07-31 21:10:00,78.1,69.1,29.92,SSE,147,0.0,0.0,74,0.04,,,0.07,Wunderground v.1.15,2013-08-01 01:10:00,
2013-07-31 21:15:00,78.1,69.9,29.92,SSE,147,0.0,0.0,76,0.00,,,0.07,Wunderground v.1.15,2013-08-01 01:15:00,
2013-07-31 21:20:00,78.1,69.9,29.92,SSE,147,0.0,0.0,76,0.00,,,0.07,Wunderground v.1.15,2013-08-01 01:20:00,
2013-07-31 21:25:00,77.9,69.7,29.92,SSE,147,0.0,0.0,76,0.00,,,0.07,Wunderground v.1.15,2013-08-01 01:25:00,
2013-07-31 21:30:00,77.7,69.9,29.93,SSE,147,0.0,0.0,77,0.00,,,0.07,Wunderground v.1.15,2013-08-01 01:30:00,
2013-07-31 21:35:00,77.7,70.3,29.93,NNE,18,0.0,2.0,78,0.00,,,0.07,Wunderground v.1.15,2013-08-01 01:35:00,
2013-07-31 21:40:00,77.7,70.3,29.93,North,359,0.0,0.0,78,0.00,,,0.07,Wunderground v.1.15,2013-08-01 01:40:00,
2013-07-31 21:45:00,77.4,70.0,29.95,North,359,0.0,0.0,78,0.00,,,0.07,Wunderground v.1.15,2013-08-01 01:45:00,
2013-07-31 21:50:00,77.2,69.8,29.95,North,359,0.0,0.0,78,0.00,,,0.07,Wunderground v.1.15,2013-08-01 01:50:00,
2013-07-31 21:55:00,76.8,69.8,29.95,North,359,0.0,0.0,79,0.00,,,0.07,Wunderground v.1.15,2013-08-01 01:55:00,
2013-07-31 22:00:00,76.8,69.8,29.94,North,359,0.0,0.0,79,0.00,,,0.07,Wunderground v.1.15,2013-08-01 02:00:00,
2013-07-31 22:05:00,76.7,70.1,29.94,North,359,0.0,0.0,80,0.00,,,0.07,Wunderground v.1.15,2013-08-01 02:05:00,
2013-07-31 22:10:00,76.7,70.1,29.94,North,359,0.0,0.0,80,0.00,,,0.07,Wunderground v.1.15,2013-08-01 02:10:00,
2013-07-31 22:15:00,76.5,69.9,29.95,North,359,0.0,0.0,80,0.00,,,0.07,Wunderground v.1.15,2013-08-01 02:15:00,
2013-07-31 22:20:00,76.5,70.2,29.95,North,359,0.0,0.0,81,0.00,,,0.07,Wunderground v.1.15,2013-08-01 02:20:00,
2013-07-31 22:25:00,76.5,70.2,29.95,North,359,0.0,0.0,81,0.00,,,0.07,Wunderground v.1.15,2013-08-01 02:25:00,
2013-07-31 22:31:00,76.3,70.0,29.95,North,359,0.0,0.0,81,0.00,,,0.07,Wunderground v.1.15,2013-08-01 02:31:00,
2013-07-31 22:36:00,76.1,69.8,29.95,North,359,0.0,0.0,81,0.00,,,0.07,Wunderground v.1.15,2013-08-01 02:36:00,
2013-07-31 22:41:00,76.1,69.8,29.95,North,359,0.0,0.0,81,0.00,,,0.07,Wunderground v.1.15,2013-08-01 02:41:00,
2013-07-31 22:46:00,76.0,69.7,29.95,North,359,0.0,0.0,81,0.00,,,0.07,Wunderground v.1.15,2013-08-01 02:46:00,
2013-07-31 22:51:00,76.0,70.1,29.95,North,359,0.0,0.0,82,0.00,,,0.07,Wunderground v.1.15,2013-08-01 02:51:00,
2013-07-31 22:56:00,75.8,69.9,29.95,North,359,0.0,0.0,82,0.00,,,0.07,Wunderground v.1.15,2013-08-01 02:56:00,
2013-07-31 23:01:00,75.8,69.9,29.95,North,359,0.0,0.0,82,0.00,,,0.07,Wunderground v.1.15,2013-08-01 03:01:00,
2013-07-31 23:06:00,75.8,69.9,29.95,North,359,0.0,0.0,82,0.00,,,0.07,Wunderground v.1.15,2013-08-01 03:06:00,
2013-07-31 23:11:00,75.8,69.9,29.95,North,357,0.0,0.0,82,0.00,,,0.07,Wunderground v.1.15,2013-08-01 03:11:00,
2013-07-31 23:16:00,75.8,70.3,29.96,North,359,0.0,0.0,83,0.00,,,0.07,Wunderground v.1.15,2013-08-01 03:16:00,
2013-07-31 23:21:00,75.6,70.1,29.96,North,359,0.0,0.0,83,0.00,,,0.07,Wunderground v.1.15,2013-08-01 03:21:00,
2013-07-31 23:26:00,75.8,70.3,29.96,North,359,0.0,0.0,83,0.00,,,0.07,Wunderground v.1.15,2013-08-01 03:26:00,
2013-07-31 23:31:00,75.6,70.1,29.95,North,359,0.0,0.0,83,0.00,,,0.07,Wunderground v.1.15,2013-08-01 03:31:00,
2013-07-31 23:36:00,75.8,70.6,29.95,East,89,0.0,1.0,84,0.00,,,0.07,Wunderground v.1.15,2013-08-01 03:36:00,
2013-07-31 23:41:00,75.6,70.4,29.95,East,89,0.0,0.0,84,0.00,,,0.07,Wunderground v.1.15,2013-08-01 03:41:00,
2013-07-31 23:46:00,75.6,70.4,29.95,East,89,0.0,0.0,84,0.00,,,0.07,Wunderground v.1.15,2013-08-01 03:46:00,
2013-07-31 23:51:00,75.4,70.2,29.95,East,89,0.0,0.0,84,0.00,,,0.07,Wunderground v.1.15,2013-08-01 03:51:00,
2013-07-31 23:56:00,75.4,70.2,29.95,East,89,0.0,0.0,84,0.00,,,0.07,Wunderground v.1.15,2013-08-01 03:56:00,